Time;durP1;ratioP1;P1;durP2;ratioP2;P2;SDS_P1;SDS_P2;PMS_P1;PMS_P2;Temp;Humidity;BMP_temperature;BMP_pressure;BME280_temperature;BME280_humidity;BME280_pressure;Samples;Min_cycle;Max_cycle;Signal;HPM_P1;HPM_P2
2021/03/26 00:01:40;;;;;;;30.98;5.13;;;;;;;13.22;83.55;100175.47;5048267;28;20025;-80
2021/03/26 00:04:07;;;;;;;22.20;4.40;;;;;;;13.22;83.61;100172.00;5048138;28;20025;-81
2021/03/26 00:06:36;;;;;;;22.10;3.78;;;;;;;13.09;85.18;100172.19;5050695;28;20502;-80
2021/03/26 00:09:04;;;;;;;27.30;4.47;;;;;;;12.78;86.67;100163.31;5047057;28;20033;-82
2021/03/26 00:11:30;;;;;;;28.13;4.18;;;;;;;12.96;86.39;100161.00;5051241;28;20033;-80
2021/03/26 00:13:56;;;;;;;27.13;5.47;;;;;;;12.98;86.35;100148.53;5050577;28;20294;-80
2021/03/26 00:16:22;;;;;;;22.80;3.83;;;;;;;12.94;86.80;100158.47;5047220;28;20187;-80
2021/03/26 00:18:49;;;;;;;17.35;4.32;;;;;;;12.94;87.49;100150.56;5049475;28;20029;-80
2021/03/26 00:21:15;;;;;;;27.75;4.25;;;;;;;12.88;87.81;100146.63;5050628;28;20025;-80
2021/03/26 00:23:41;;;;;;;28.67;4.20;;;;;;;12.62;88.83;100145.28;5050160;28;20024;-80
2021/03/26 00:26:06;;;;;;;23.80;4.32;;;;;;;12.68;89.07;100132.44;5041544;28;20361;-80
2021/03/26 00:28:32;;;;;;;24.67;3.88;;;;;;;12.93;87.89;100145.41;5040833;28;20025;-80
2021/03/26 00:30:58;;;;;;;26.30;4.25;;;;;;;12.82;88.22;100139.22;5046745;28;20497;-80
2021/03/26 00:33:23;;;;;;;22.25;5.40;;;;;;;12.89;88.14;100131.66;5047542;28;20029;-80
2021/03/26 00:35:49;;;;;;;19.73;3.70;;;;;;;13.05;87.69;100134.72;5048490;28;20064;-81
2021/03/26 00:38:15;;;;;;;14.18;3.17;;;;;;;13.09;88.31;100130.84;5050901;28;20033;-80
2021/03/26 00:40:41;;;;;;;23.08;4.13;;;;;;;13.19;88.46;100135.34;5063328;28;20033;-80
2021/03/26 00:43:06;;;;;;;22.45;4.60;;;;;;;12.92;90.00;100126.13;5068943;28;20557;-80
2021/03/26 00:45:34;;;;;;;19.08;3.10;;;;;;;12.80;91.43;100124.53;5053267;28;20034;-81
2021/03/26 00:48:01;;;;;;;17.27;3.78;;;;;;;12.67;92.77;100108.84;5045263;28;20029;-80
2021/03/26 00:50:38;;;;;;;20.58;4.50;;;;;;;12.94;91.55;100113.66;5047189;28;20025;-81
2021/03/26 00:53:08;;;;;;;18.95;3.63;;;;;;;12.70;92.32;100104.19;5057537;28;20029;-80
2021/03/26 00:55:34;;;;;;;19.55;3.55;;;;;;;12.82;92.26;100107.63;5054809;28;20048;-81
2021/03/26 00:57:59;;;;;;;20.50;3.35;;;;;;;12.95;91.90;100101.31;5056823;28;20178;-81
2021/03/26 01:00:26;;;;;;;16.42;3.22;;;;;;;12.78;93.19;100095.66;5053038;28;20083;-82
2021/03/26 01:02:52;;;;;;;13.45;2.92;;;;;;;13.05;91.29;100089.91;5053445;28;20108;-82
2021/03/26 01:05:23;;;;;;;12.50;2.88;;;;;;;12.36;95.38;100081.53;5044826;28;20100;-82
2021/03/26 01:07:48;;;;;;;7.93;2.17;;;;;;;12.25;97.69;100077.16;5055195;28;20032;-81
2021/03/26 01:10:17;;;;;;;19.25;4.95;;;;;;;12.03;98.50;100085.94;5054505;28;20029;-82
2021/03/26 01:12:43;;;;;;;11.52;2.25;;;;;;;12.41;96.71;100080.22;5041265;28;20510;-81
2021/03/26 01:15:14;;;;;;;12.23;2.50;;;;;;;12.99;94.43;100077.22;5056963;28;20017;-81
2021/03/26 01:17:40;;;;;;;16.13;3.33;;;;;;;12.66;95.83;100072.97;5053672;28;20037;-81
2021/03/26 01:20:09;;;;;;;22.65;3.10;;;;;;;12.59;96.07;100080.50;5059787;28;20029;-81
2021/03/26 01:22:35;;;;;;;17.20;3.42;;;;;;;12.40;97.03;100072.44;5056746;28;20090;-82
2021/03/26 01:25:00;;;;;;;18.17;2.55;;;;;;;12.35;96.97;100056.19;5043862;28;20037;-82
2021/03/26 01:27:27;;;;;;;17.73;2.92;;;;;;;12.42;97.12;100067.88;5055584;28;20025;-82
2021/03/26 01:29:52;;;;;;;23.02;3.42;;;;;;;12.43;97.20;100065.13;5052889;28;20537;-81
2021/03/26 01:32:18;;;;;;;14.98;3.17;;;;;;;12.69;95.93;100065.63;5053442;28;20033;-81
2021/03/26 01:34:43;;;;;;;19.85;3.65;;;;;;;12.55;97.37;100073.81;5034398;28;20390;-82
2021/03/26 01:37:08;;;;;;;26.67;4.25;;;;;;;12.56;98.24;100053.59;5053314;28;20033;-82
2021/03/26 01:39:34;;;;;;;17.95;2.92;;;;;;;12.61;97.96;100057.50;5052760;28;20025;-82
2021/03/26 01:41:59;;;;;;;23.55;5.18;;;;;;;12.68;97.64;100069.22;5037013;28;20037;-81
2021/03/26 01:44:27;;;;;;;13.63;3.08;;;;;;;12.88;96.08;100053.56;5054020;28;20033;-81
2021/03/26 01:46:53;;;;;;;15.55;3.63;;;;;;;13.07;94.40;100053.72;5053320;28;20044;-81
2021/03/26 01:49:19;;;;;;;17.20;3.20;;;;;;;12.96;93.99;100056.41;5043199;28;20036;-81
2021/03/26 01:51:48;;;;;;;17.05;3.17;;;;;;;12.74;94.22;100067.03;5052602;28;20091;-81
2021/03/26 01:54:17;;;;;;;10.85;1.65;;;;;;;12.45;93.01;100073.72;5043271;28;20480;-81
2021/03/26 01:56:43;;;;;;;3.25;0.93;;;;;;;12.05;91.84;100066.41;5050820;28;20033;-81
2021/03/26 01:59:09;;;;;;;4.68;1.50;;;;;;;11.97;91.33;100053.03;5047716;28;20036;-81
2021/03/26 02:01:45;;;;;;;5.60;1.42;;;;;;;12.10;90.19;100055.50;5052282;28;20029;-81
2021/03/26 02:04:23;;;;;;;7.95;1.08;;;;;;;12.01;88.68;100058.91;5052907;28;20222;-81
2021/03/26 02:06:55;;;;;;;8.18;1.50;;;;;;;11.56;93.86;100058.88;5050325;28;20055;-81
2021/03/26 02:09:29;;;;;;;9.68;1.50;;;;;;;11.80;91.81;100056.94;5045022;28;20033;-81
2021/03/26 02:12:04;;;;;;;8.90;1.85;;;;;;;11.34;96.22;100050.03;5041674;28;20025;-81
2021/03/26 02:14:37;;;;;;;10.85;2.10;;;;;;;11.97;91.29;100039.06;5037407;28;20025;-81
2021/03/26 02:17:03;;;;;;;8.32;1.77;;;;;;;12.14;91.61;100035.88;5043739;28;20138;-80
2021/03/26 02:19:35;;;;;;;6.40;1.83;;;;;;;12.22;91.14;100014.22;5052386;28;20033;-81
2021/03/26 02:22:02;;;;;;;20.30;3.33;;;;;;;12.24;90.47;100007.88;5049350;28;20032;-80
2021/03/26 02:24:28;;;;;;;11.80;1.73;;;;;;;12.33;91.17;100013.34;5052499;28;20510;-81
2021/03/26 02:26:57;;;;;;;11.13;1.58;;;;;;;12.41;92.33;100016.19;5054089;28;20118;-81
2021/03/26 02:29:26;;;;;;;8.82;2.03;;;;;;;12.44;91.79;100014.16;5046349;28;20091;-81
2021/03/26 02:31:57;;;;;;;9.25;2.05;;;;;;;12.57;92.16;100002.59;5052176;28;20095;-81
2021/03/26 02:34:24;;;;;;;10.85;3.17;;;;;;;12.53;92.93;99993.28;5040756;28;20489;-81
2021/03/26 02:36:58;;;;;;;12.73;1.92;;;;;;;12.46;93.40;99987.66;5051521;28;20069;-81
2021/03/26 02:39:33;;;;;;;10.40;2.13;;;;;;;12.15;96.04;99997.25;5052313;28;20039;-81
2021/03/26 02:42:03;;;;;;;7.05;1.60;;;;;;;12.14;96.13;99974.53;5033520;28;20493;-82
2021/03/26 02:44:47;;;;;;;15.77;2.53;;;;;;;12.17;95.78;99966.38;5053106;28;20038;-81
2021/03/26 02:47:36;;;;;;;12.07;2.15;;;;;;;12.19;95.19;99977.63;5040819;28;20029;-81
2021/03/26 02:50:09;;;;;;;7.45;1.65;;;;;;;11.90;95.32;99976.38;5049362;28;20036;-81
2021/03/26 02:52:47;;;;;;;6.63;2.03;;;;;;;12.20;93.07;99974.84;5033250;28;20021;-81
2021/03/26 02:55:37;;;;;;;12.93;2.13;;;;;;;12.08;94.03;99983.75;5034062;28;20114;-81
2021/03/26 02:58:10;;;;;;;13.75;2.47;;;;;;;12.13;93.66;99973.69;5053089;28;20033;-81
2021/03/26 03:00:45;;;;;;;16.88;3.30;;;;;;;12.36;93.45;99958.66;5050170;28;20040;-81
2021/03/26 03:03:14;;;;;;;19.10;3.55;;;;;;;12.21;93.89;99944.94;5045299;28;20037;-81
2021/03/26 03:05:46;;;;;;;17.70;3.45;;;;;;;12.25;95.10;99946.38;5050047;28;20032;-81
2021/03/26 03:08:18;;;;;;;17.27;2.97;;;;;;;12.28;94.64;99951.38;5051379;28;20025;-81
2021/03/26 03:10:51;;;;;;;17.00;3.40;;;;;;;12.18;95.12;99944.34;5045475;28;20037;-81
2021/03/26 03:13:31;;;;;;;16.88;3.63;;;;;;;12.27;93.73;99939.19;5052142;28;20025;-81
2021/03/26 03:16:04;;;;;;;19.02;3.55;;;;;;;12.32;93.75;99940.59;5049122;28;20044;-81
2021/03/26 03:18:36;;;;;;;26.60;5.78;;;;;;;12.19;94.23;99925.81;5044623;28;20025;-81
2021/03/26 03:21:10;;;;;;;19.85;3.33;;;;;;;12.27;93.94;99922.56;5051068;28;20047;-81
2021/03/26 03:23:51;;;;;;;17.13;4.85;;;;;;;12.14;94.97;99916.63;5052612;28;20036;-82
2021/03/26 03:26:31;;;;;;;20.67;3.17;;;;;;;11.87;94.97;99925.78;5043328;28;20021;-82
2021/03/26 03:28:59;;;;;;;19.08;3.30;;;;;;;12.08;93.58;99913.56;5050159;28;20035;-82
2021/03/26 03:31:52;;;;;;;17.90;3.95;;;;;;;12.23;93.63;99916.69;5050344;28;20021;-82
2021/03/26 03:34:20;;;;;;;26.90;4.45;;;;;;;12.11;94.75;99922.97;5050980;28;20536;-82
2021/03/26 03:36:54;;;;;;;20.65;3.35;;;;;;;12.13;95.35;99915.78;5046638;28;20037;-82
2021/03/26 03:39:39;;;;;;;26.90;3.70;;;;;;;12.29;94.13;99904.84;5041101;28;20028;-82
2021/03/26 03:42:14;;;;;;;29.50;4.43;;;;;;;12.26;94.14;99905.94;5032311;28;20501;-82
2021/03/26 03:44:45;;;;;;;24.80;4.43;;;;;;;11.94;97.31;99889.31;5043302;28;20556;-82
2021/03/26 03:47:17;;;;;;;25.13;5.40;;;;;;;12.03;96.50;99901.72;5049717;28;20387;-82
2021/03/26 03:50:20;;;;;;;22.80;4.53;;;;;;;12.78;92.13;99897.25;5050266;28;20024;-82
2021/03/26 03:53:06;;;;;;;;;;;;;;;12.71;91.54;99894.28;5045482;28;20503;-82
2021/03/26 03:55:39;;;;;;;20.13;3.58;;;;;;;12.65;91.24;99882.47;5045054;28;19917;-82
2021/03/26 03:58:13;;;;;;;21.17;3.45;;;;;;;12.58;92.16;99878.69;5045476;28;20090;-82
2021/03/26 04:00:47;;;;;;;18.63;3.42;;;;;;;12.62;91.68;99885.38;5043185;28;20175;-82
2021/03/26 04:03:24;;;;;;;24.33;3.55;;;;;;;12.42;91.67;99876.53;5032313;28;20037;-81
2021/03/26 04:05:54;;;;;;;24.50;4.90;;;;;;;12.55;91.50;99868.41;5040022;28;20035;-82
2021/03/26 04:08:26;;;;;;;22.00;3.50;;;;;;;12.45;92.41;99872.78;5036894;28;20041;-82
2021/03/26 04:11:04;;;;;;;17.20;2.70;;;;;;;12.51;91.50;99867.00;5040267;28;20025;-82
2021/03/26 04:13:38;;;;;;;17.80;3.38;;;;;;;12.56;90.85;99861.34;5049484;28;20427;-82
2021/03/26 04:16:04;;;;;;;17.67;3.28;;;;;;;12.34;91.82;99859.69;5049780;28;20052;-82
2021/03/26 04:18:44;;;;;;;14.88;3.03;;;;;;;12.48;90.07;99860.22;5045403;28;20479;-82
2021/03/26 04:21:19;;;;;;;12.90;2.78;;;;;;;12.51;90.11;99853.84;5041393;28;20024;-82
2021/03/26 04:23:53;;;;;;;20.02;3.13;;;;;;;12.66;89.13;99834.09;5042869;28;20108;-82
2021/03/26 04:26:55;;;;;;;18.05;3.65;;;;;;;12.53;89.71;99844.00;5031922;28;20022;-82
2021/03/26 04:29:43;;;;;;;23.70;3.65;;;;;;;12.40;90.73;99825.81;5034195;28;20029;-82
2021/03/26 04:32:13;;;;;;;20.05;3.85;;;;;;;12.48;90.49;99836.50;5032225;28;20087;-82
2021/03/26 04:34:43;;;;;;;17.90;3.33;;;;;;;12.56;90.68;99827.97;5040740;28;20095;-82
2021/03/26 04:37:20;;;;;;;20.42;3.05;;;;;;;12.47;91.43;99828.72;5049842;28;20037;-82
2021/03/26 04:39:56;;;;;;;15.30;3.45;;;;;;;12.56;90.36;99822.69;5049693;28;20040;-81
2021/03/26 04:42:31;;;;;;;21.38;4.60;;;;;;;12.63;90.35;99812.44;5049847;28;20132;-81
2021/03/26 04:45:22;;;;;;;19.75;5.10;;;;;;;12.51;90.16;99809.06;5050054;28;20025;-81
2021/03/26 04:47:57;;;;;;;20.83;4.95;;;;;;;12.16;91.25;99815.53;5050928;28;20032;-80
2021/03/26 04:50:36;;;;;;;20.00;4.10;;;;;;;11.89;92.25;99810.78;5049010;28;20017;-80
2021/03/26 04:53:18;;;;;;;22.27;3.63;;;;;;;12.20;90.37;99811.66;5039634;28;20483;-81
2021/03/26 04:55:51;;;;;;;20.58;3.65;;;;;;;12.54;88.33;99798.28;5054567;28;20414;-82
2021/03/26 04:58:20;;;;;;;23.13;4.63;;;;;;;12.06;91.00;99788.31;5055656;28;20083;-82
2021/03/26 05:00:49;;;;;;;19.02;2.83;;;;;;;12.03;91.37;99793.84;5048783;28;20029;-81
2021/03/26 05:03:29;;;;;;;29.25;4.10;;;;;;;11.74;92.21;99770.75;5056470;28;20094;-82
2021/03/26 05:06:03;;;;;;;27.08;3.40;;;;;;;11.88;91.69;99765.19;5054323;28;20029;-82
2021/03/26 05:08:29;;;;;;;21.40;3.60;;;;;;;12.02;90.39;99777.22;5053659;28;20647;-82
2021/03/26 05:10:58;;;;;;;17.95;3.30;;;;;;;11.67;92.28;99772.22;5047085;28;20163;-81
2021/03/26 05:13:29;;;;;;;22.13;3.85;;;;;;;11.73;92.47;99782.25;5052100;28;20021;-82
2021/03/26 05:16:19;;;;;;;15.57;2.83;;;;;;;11.37;93.78;99776.41;5053222;28;20044;-81
2021/03/26 05:18:53;;;;;;;26.88;3.47;;;;;;;11.44;93.61;99774.97;5037532;28;20050;-81
2021/03/26 05:21:28;;;;;;;18.40;4.70;;;;;;;11.56;93.63;99786.25;5040991;28;20040;-82
2021/03/26 05:24:03;;;;;;;15.60;2.53;;;;;;;11.67;92.60;99777.47;5035214;28;20364;-81
2021/03/26 05:26:32;;;;;;;28.63;4.35;;;;;;;11.68;91.84;99774.72;5035511;28;20041;-82
2021/03/26 05:28:58;;;;;;;24.38;3.08;;;;;;;11.50;93.16;99781.50;5034971;28;20034;-82
2021/03/26 05:31:50;;;;;;;16.77;2.97;;;;;;;11.26;94.76;99773.84;5050903;28;20040;-81
2021/03/26 05:34:25;;;;;;;30.75;3.47;;;;;;;11.38;93.94;99775.47;5055107;28;20065;-82
2021/03/26 05:37:28;;;;;;;19.40;2.53;;;;;;;11.38;93.19;99775.47;5049710;28;20029;-81
2021/03/26 05:40:02;;;;;;;21.35;4.25;;;;;;;11.46;93.20;99785.34;5047673;28;20032;-82
2021/03/26 05:42:44;;;;;;;21.85;3.28;;;;;;;11.11;95.17;99763.59;5034823;28;20034;-82
2021/03/26 05:45:12;;;;;;;22.58;3.63;;;;;;;11.19;94.42;99767.41;5050771;28;20021;-82
2021/03/26 05:48:11;;;;;;;17.17;2.97;;;;;;;11.22;94.55;99772.41;5053069;28;20102;-82
2021/03/26 05:51:07;;;;;;;16.45;3.10;;;;;;;11.43;93.24;99767.19;5046650;28;20465;-82
2021/03/26 05:53:50;;;;;;;19.30;3.08;;;;;;;11.32;93.86;99754.94;5050869;28;20033;-81
2021/03/26 05:56:25;;;;;;;18.35;2.53;;;;;;;11.48;93.26;99759.78;5052398;28;20040;-82
2021/03/26 05:59:28;;;;;;;17.98;3.58;;;;;;;11.43;93.68;99760.16;5054137;28;20454;-82
2021/03/26 06:02:35;;;;;;;20.88;3.60;;;;;;;11.33;93.95;99759.22;5047086;28;20036;-82
2021/03/26 06:05:23;;;;;;;19.33;2.97;;;;;;;11.07;95.33;99741.13;5021390;28;20041;-82
2021/03/26 06:08:40;;;;;;;22.95;4.13;;;;;;;11.30;94.49;99748.97;5046682;28;20475;-82
2021/03/26 06:11:37;;;;;;;18.95;3.70;;;;;;;11.56;93.05;99748.63;5008814;28;20037;-82
2021/03/26 06:14:53;;;;;;;22.38;3.30;;;;;;;11.42;94.73;99750.59;5040821;28;20032;-82
2021/03/26 06:17:47;;;;;;;28.05;3.78;;;;;;;11.57;93.69;99745.03;5007730;28;20076;-82
2021/03/26 06:20:43;;;;;;;20.27;3.67;;;;;;;11.28;95.03;99756.16;5018781;28;20548;-82
2021/03/26 06:23:35;;;;;;;26.52;4.68;;;;;;;11.44;94.34;99759.19;5051216;28;20040;-82
2021/03/26 06:26:03;;;;;;;23.98;4.70;;;;;;;11.48;93.42;99747.44;5050564;28;20072;-83
2021/03/26 06:28:44;;;;;;;22.85;4.10;;;;;;;11.69;91.62;99730.88;5048138;28;20032;-82
2021/03/26 06:31:34;;;;;;;26.67;3.38;;;;;;;11.56;91.13;99746.00;5053748;28;20071;-83
2021/03/26 06:34:14;;;;;;;17.80;3.97;;;;;;;11.45;91.62;99742.47;5053421;28;20079;-83
2021/03/26 06:37:03;;;;;;;20.85;3.85;;;;;;;11.39;90.91;99734.22;5052218;28;20107;-83
2021/03/26 06:39:49;;;;;;;24.88;3.47;;;;;;;11.44;90.11;99727.63;5042313;28;20036;-83
2021/03/26 06:42:39;;;;;;;23.75;4.72;;;;;;;11.45;89.22;99725.84;5051924;28;20025;-83
2021/03/26 06:45:43;;;;;;;21.13;3.00;;;;;;;11.70;88.18;99719.38;5052239;28;20028;-83
2021/03/26 06:48:24;;;;;;;12.10;3.20;;;;;;;11.34;89.88;99713.59;5051546;28;20025;-83
2021/03/26 06:51:08;;;;;;;16.52;3.22;;;;;;;11.43;89.67;99707.59;5053203;28;20063;-83
2021/03/26 06:54:10;;;;;;;21.45;3.65;;;;;;;11.39;90.57;99714.03;5053432;28;20036;-83
2021/03/26 06:57:06;;;;;;;21.98;3.47;;;;;;;11.44;90.26;99714.50;5053508;28;20491;-83
2021/03/26 06:59:56;;;;;;;16.65;2.63;;;;;;;11.58;90.01;99708.09;5054167;28;20037;-83
2021/03/26 07:03:01;;;;;;;18.38;3.95;;;;;;;11.54;89.89;99693.53;5050202;28;20367;-82
2021/03/26 07:05:38;;;;;;;20.35;3.55;;;;;;;11.66;89.34;99691.69;5048200;28;20036;-84
2021/03/26 07:08:56;;;;;;;23.98;3.78;;;;;;;11.51;91.16;99699.91;5051319;28;20025;-84
2021/03/26 07:11:59;;;;;;;19.13;3.85;;;;;;;11.81;89.08;99690.41;5033078;28;20033;-84
2021/03/26 07:14:39;;;;;;;;;;;;;;;12.08;88.52;99682.00;5037444;28;20109;-83
2021/03/26 07:17:41;;;;;;;20.95;3.83;;;;;;;12.12;89.27;99684.34;5051922;28;19913;-83
2021/03/26 07:20:17;;;;;;;21.92;3.13;;;;;;;12.41;89.00;99673.94;5037933;28;20383;-83
2021/03/26 07:22:57;;;;;;;30.20;3.95;;;;;;;12.53;88.04;99679.91;5035305;28;20095;-83
2021/03/26 07:25:56;;;;;;;21.80;3.28;;;;;;;12.91;86.36;99679.16;5031622;28;20506;-83
2021/03/26 07:28:36;;;;;;;27.10;5.20;;;;;;;12.93;86.07;99673.75;5044963;28;20037;-83
2021/03/26 07:31:27;;;;;;;24.30;4.47;;;;;;;12.94;84.27;99660.44;5033922;28;20022;-82
2021/03/26 07:33:55;;;;;;;23.40;3.88;;;;;;;13.07;84.20;99647.84;5034135;28;20025;-83
2021/03/26 07:36:47;;;;;;;22.40;3.97;;;;;;;12.93;84.59;99645.59;5033735;28;20091;-83
2021/03/26 07:39:32;;;;;;;22.25;4.22;;;;;;;13.07;84.09;99639.06;5039436;28;20041;-84
2021/03/26 07:42:10;;;;;;;29.13;4.75;;;;;;;13.06;84.35;99635.59;5044198;28;20033;-83
2021/03/26 07:45:12;;;;;;;28.33;3.80;;;;;;;12.95;83.11;99638.38;5042127;28;20029;-83
2021/03/26 07:48:21;;;;;;;20.13;3.72;;;;;;;12.73;84.12;99639.47;5045942;28;20040;-83
2021/03/26 07:51:17;;;;;;;16.77;3.20;;;;;;;12.99;84.03;99626.59;5010198;28;20373;-82
2021/03/26 07:53:55;;;;;;;16.33;2.95;;;;;;;13.23;81.99;99628.81;5009967;28;20046;-83
2021/03/26 07:56:42;;;;;;;17.52;3.95;;;;;;;13.66;81.47;99637.22;5040758;28;20439;-82
2021/03/26 07:59:29;;;;;;;22.67;3.45;;;;;;;13.79;78.67;99627.19;5038093;28;20041;-82
2021/03/26 08:02:02;;;;;;;14.13;2.70;;;;;;;14.31;78.67;99631.13;5037150;28;20040;-82
2021/03/26 08:04:52;;;;;;;18.40;2.90;;;;;;;14.52;76.68;99623.78;5033218;28;20072;-82
2021/03/26 08:07:46;;;;;;;22.70;4.78;;;;;;;15.06;73.37;99624.66;5033975;28;20014;-82
2021/03/26 08:10:20;;;;;;;24.42;3.58;;;;;;;14.72;73.48;99613.94;5032310;28;20037;-84
2021/03/26 08:13:04;;;;;;;16.50;3.20;;;;;;;14.51;73.76;99619.47;5037440;28;20583;-82
2021/03/26 08:15:43;;;;;;;25.00;4.80;;;;;;;14.20;76.03;99643.56;5039521;28;20392;-82
2021/03/26 08:18:33;;;;;;;24.98;3.50;;;;;;;14.32;75.90;99627.53;5043246;28;20033;-86
2021/03/26 08:21:10;;;;;;;14.80;3.15;;;;;;;13.75;75.73;99617.91;5031455;28;20104;-86
2021/03/26 08:23:57;;;;;;;19.70;3.80;;;;;;;13.36;77.58;99625.06;5045508;28;20025;-85
2021/03/26 08:26:47;;;;;;;23.55;3.70;;;;;;;13.54;80.27;99623.38;5041850;28;20025;-85
2021/03/26 08:29:18;;;;;;;22.85;3.13;;;;;;;13.58;81.69;99624.75;5045851;28;20047;-88
2021/03/26 08:32:21;;;;;;;20.05;3.03;;;;;;;13.12;86.30;99633.41;5039012;28;20085;-82
2021/03/26 08:35:19;;;;;;;18.50;4.13;;;;;;;13.16;86.13;99634.78;5042601;28;20075;-82
2021/03/26 08:38:22;;;;;;;23.02;3.33;;;;;;;12.93;85.65;99636.84;5033951;28;20041;-82
2021/03/26 08:40:58;;;;;;;26.25;4.55;;;;;;;12.68;88.31;99623.25;5044158;28;20045;-82
2021/03/26 08:43:26;;;;;;;23.60;4.40;;;;;;;12.84;87.72;99607.75;5046463;28;20055;-82
2021/03/26 08:46:08;;;;;;;22.20;4.20;;;;;;;12.62;88.83;99616.75;5050808;28;20037;-82
2021/03/26 08:48:39;;;;;;;29.92;3.83;;;;;;;12.51;90.66;99614.22;5042924;28;20120;-83
2021/03/26 08:51:33;;;;;;;24.15;5.07;;;;;;;12.30;92.59;99617.78;5038269;28;20033;-82
2021/03/26 08:54:17;;;;;;;26.77;4.60;;;;;;;12.20;93.11;99626.59;5032424;28;20112;-83
2021/03/26 08:57:13;;;;;;;26.38;4.22;;;;;;;12.08;94.45;99617.97;5032463;28;20029;-82
2021/03/26 08:59:53;;;;;;;38.92;5.55;;;;;;;12.27;93.68;99615.41;5031682;28;20121;-82
2021/03/26 09:02:42;;;;;;;24.35;4.05;;;;;;;12.07;95.03;99613.69;5031572;28;20025;-82
2021/03/26 09:05:33;;;;;;;33.70;4.53;;;;;;;12.17;94.41;99598.75;5031252;28;20486;-82
2021/03/26 09:08:17;;;;;;;30.08;4.28;;;;;;;12.43;93.96;99600.91;5038217;28;20498;-82
2021/03/26 09:11:07;;;;;;;18.23;3.88;;;;;;;12.23;95.24;99606.13;5039765;28;20024;-82
2021/03/26 09:14:05;;;;;;;20.23;5.65;;;;;;;12.72;93.14;99589.56;5039252;28;20030;-82
2021/03/26 09:16:40;;;;;;;21.88;3.58;;;;;;;12.35;94.19;99590.22;5032579;28;20025;-82
2021/03/26 09:19:11;;;;;;;27.25;4.03;;;;;;;12.42;93.33;99588.69;5041866;28;20064;-82
2021/03/26 09:21:53;;;;;;;23.15;4.70;;;;;;;12.27;95.57;99627.75;5039380;28;20033;-87
2021/03/26 09:24:21;;;;;;;;;;;;;;;11.77;94.59;99670.56;5047329;28;20036;-88
2021/03/26 09:26:50;;;;;;;6.88;1.75;;;;;;;11.30;93.95;99680.63;5052144;28;19917;-89
2021/03/26 09:29:22;;;;;;;6.60;1.70;;;;;;;11.29;93.85;99673.69;5049029;28;20041;-88
2021/03/26 09:31:56;;;;;;;5.55;1.70;;;;;;;10.51;100.00;99663.34;5051747;28;20025;-88
2021/03/26 09:34:29;;;;;;;4.60;1.20;;;;;;;11.06;99.49;99654.59;5052042;28;20079;-89
2021/03/26 09:37:06;;;;;;;7.85;1.20;;;;;;;10.76;98.83;99673.66;5050188;28;20038;-84
2021/03/26 09:39:34;;;;;;;4.88;1.20;;;;;;;11.17;95.53;99679.97;5039877;28;20036;-83
2021/03/26 09:42:27;;;;;;;7.00;0.90;;;;;;;11.40;95.63;99692.06;5034735;28;20025;-84
2021/03/26 09:45:14;;;;;;;4.10;0.98;;;;;;;11.19;95.21;99688.56;5051194;28;20044;-84
2021/03/26 09:48:01;;;;;;;7.68;1.27;;;;;;;11.72;92.33;99691.16;5049557;28;20180;-84
2021/03/26 09:50:37;;;;;;;4.88;1.15;;;;;;;11.42;93.30;99681.41;5038359;28;20028;-83
2021/03/26 09:53:14;;;;;;;5.28;1.00;;;;;;;10.82;99.55;99688.91;5048347;28;20112;-84
2021/03/26 09:55:42;;;;;;;7.78;1.30;;;;;;;11.03;96.88;99694.25;5035831;28;20030;-86
2021/03/26 09:58:25;;;;;;;3.50;0.85;;;;;;;11.61;95.24;99689.44;5038028;28;20036;-87
2021/03/26 10:01:11;;;;;;;8.75;2.55;;;;;;;11.87;93.08;99666.19;5054006;28;20026;-92
2021/03/26 10:03:46;;;;;;;4.32;1.02;;;;;;;11.58;92.36;99683.59;5056709;28;20033;-87
2021/03/26 10:06:30;;;;;;;6.63;1.13;;;;;;;11.67;93.22;99702.06;5056580;28;20047;-90
2021/03/26 10:09:21;;;;;;;2.95;0.80;;;;;;;12.00;89.88;99702.00;5038161;28;20021;-82
2021/03/26 10:12:12;;;;;;;3.42;0.75;;;;;;;11.50;93.48;99705.28;5044673;28;20094;-82
2021/03/26 10:14:52;;;;;;;3.42;0.70;;;;;;;11.24;94.85;99713.50;5035203;28;20045;-83
2021/03/26 10:17:27;;;;;;;7.95;1.23;;;;;;;11.27;94.85;99712.41;5034204;28;20431;-82
2021/03/26 10:20:04;;;;;;;2.92;0.95;;;;;;;11.05;96.28;99708.09;5034433;28;20025;-83
2021/03/26 10:22:49;;;;;;;2.50;0.80;;;;;;;10.94;96.66;99722.09;5044504;28;20033;-82
2021/03/26 10:25:29;;;;;;;3.65;1.40;;;;;;;11.06;94.21;99738.66;5054355;28;20041;-83
2021/03/26 10:28:24;;;;;;;6.20;0.77;;;;;;;11.20;91.25;99734.91;5065948;28;20051;-82
2021/03/26 10:30:51;;;;;;;3.90;0.60;;;;;;;10.93;92.42;99741.41;5065475;28;20025;-83
2021/03/26 10:33:19;;;;;;;6.25;0.70;;;;;;;10.77;93.68;99751.50;5058595;28;20048;-82
2021/03/26 10:36:04;;;;;;;6.35;1.05;;;;;;;10.52;94.07;99756.03;5063139;28;20080;-83
2021/03/26 10:38:44;;;;;;;7.65;0.90;;;;;;;10.85;91.98;99760.41;5052506;28;20033;-83
2021/03/26 10:41:28;;;;;;;6.88;2.03;;;;;;;10.61;90.67;99749.25;5056083;28;20056;-82
2021/03/26 10:44:18;;;;;;;7.20;0.93;;;;;;;11.30;89.78;99748.97;5078810;28;20009;-82
2021/03/26 10:46:52;;;;;;;9.15;2.00;;;;;;;11.07;87.30;99738.50;5077663;28;20053;-82
2021/03/26 10:49:30;;;;;;;7.32;0.82;;;;;;;11.35;88.98;99741.53;5074494;28;20032;-82
2021/03/26 10:52:24;;;;;;;6.15;0.90;;;;;;;11.65;84.22;99753.09;5062515;28;20021;-81
2021/03/26 10:54:57;;;;;;;9.98;1.38;;;;;;;11.92;83.02;99759.72;5064034;28;20025;-83
2021/03/26 10:57:38;;;;;;;6.97;0.90;;;;;;;11.80;85.36;99767.63;5072798;28;20017;-81
2021/03/26 11:00:19;;;;;;;7.82;0.73;;;;;;;11.36;85.53;99761.59;5060196;28;20072;-82
2021/03/26 11:03:07;;;;;;;7.05;1.50;;;;;;;12.23;86.33;99752.69;5063739;28;20025;-82
2021/03/26 11:05:38;;;;;;;13.48;1.67;;;;;;;12.03;84.83;99768.38;5054267;28;20403;-82
2021/03/26 11:08:03;;;;;;;14.55;1.42;;;;;;;12.04;83.90;99758.66;5059243;28;20112;-82
2021/03/26 11:10:44;;;;;;;10.88;1.30;;;;;;;12.47;82.31;99755.00;5061844;28;20037;-81
2021/03/26 11:13:33;;;;;;;14.00;3.60;;;;;;;12.30;82.30;99749.41;5071341;28;20028;-80
2021/03/26 11:16:05;;;;;;;12.23;1.48;;;;;;;12.33;84.74;99743.03;5067358;28;20021;-81
2021/03/26 11:18:39;;;;;;;12.95;2.28;;;;;;;13.11;82.20;99743.25;5054039;28;20071;-82
2021/03/26 11:21:11;;;;;;;11.25;1.70;;;;;;;12.62;79.40;99748.41;5045303;28;20040;-82
2021/03/26 11:23:39;;;;;;;13.00;1.70;;;;;;;12.63;79.16;99750.06;5038416;28;20044;-82
2021/03/26 11:26:04;;;;;;;15.50;1.73;;;;;;;12.35;84.30;99746.38;5032627;28;20064;-82
2021/03/26 11:28:39;;;;;;;16.55;2.17;;;;;;;12.60;81.03;99760.03;5043977;28;20110;-82
2021/03/26 11:31:25;;;;;;;10.23;1.80;;;;;;;13.38;80.69;99766.34;5049860;28;20040;-82
2021/03/26 11:34:09;;;;;;;14.60;2.60;;;;;;;12.89;79.98;99768.88;5053282;28;20056;-82
2021/03/26 11:36:41;;;;;;;7.32;1.02;;;;;;;12.83;78.46;99771.22;5038102;28;20091;-82
2021/03/26 11:39:12;;;;;;;14.80;1.92;;;;;;;12.94;76.34;99773.75;5031270;28;20433;-82
2021/03/26 11:42:03;;;;;;;11.27;1.75;;;;;;;12.76;76.43;99772.72;5031959;28;20549;-82
2021/03/26 11:44:35;;;;;;;17.48;1.77;;;;;;;12.82;79.45;99785.38;5034355;28;20035;-82
2021/03/26 11:47:31;;;;;;;9.77;1.33;;;;;;;13.36;79.23;99773.56;5049594;28;20033;-82
2021/03/26 11:50:04;;;;;;;10.13;1.58;;;;;;;13.26;76.92;99762.16;5046426;28;20491;-82
2021/03/26 11:52:40;;;;;;;9.88;1.35;;;;;;;13.13;74.89;99772.09;5041969;28;20036;-82
2021/03/26 11:55:16;;;;;;;8.38;1.55;;;;;;;12.96;74.49;99777.06;5050181;28;20021;-82
2021/03/26 11:58:22;;;;;;;12.07;2.00;;;;;;;13.18;71.89;99780.44;5052117;28;20025;-82
2021/03/26 12:00:55;;;;;;;10.15;2.28;;;;;;;12.69;73.90;99791.69;4985596;28;20038;-82
2021/03/26 12:03:30;;;;;;;14.73;1.90;;;;;;;12.05;76.63;99812.97;4988867;28;20118;-82
2021/03/26 12:06:02;;;;;;;7.60;1.27;;;;;;;12.15;75.40;99798.06;5028209;28;20044;-82
2021/03/26 12:08:36;;;;;;;9.02;1.17;;;;;;;11.67;78.59;99803.78;5041542;28;20021;-82
2021/03/26 12:11:22;;;;;;;8.73;1.67;;;;;;;11.27;79.87;99797.34;5036306;28;20029;-82
2021/03/26 12:14:00;;;;;;;5.88;0.73;;;;;;;11.88;74.43;99785.41;5030925;28;20030;-81
2021/03/26 12:16:33;;;;;;;6.78;1.38;;;;;;;11.93;72.29;99791.16;5032114;28;20026;-82
2021/03/26 12:19:22;;;;;;;4.47;0.60;;;;;;;12.23;73.73;99790.38;5031931;28;20116;-82